Time;durP1;ratioP1;P1;durP2;ratioP2;P2;SDS_P1;SDS_P2;PMS_P1;PMS_P2;Temp;Humidity;BMP_temperature;BMP_pressure;BME280_temperature;BME280_humidity;BME280_pressure;Samples;Min_cycle;Max_cycle;Signal;HPM_P1;HPM_P2
2022/07/30 04:01:42;;;;;;;22.58;14.40;;;15.70;99.90;;;;;;5434425;23;20458;-86
2022/07/30 04:05:25;;;;;;;43.03;15.25;;;15.70;99.90;;;;;;4956889;28;20043;-85
2022/07/30 04:29:02;;;;;;;;;;;;;;;;;;;;;
2022/07/30 04:35:12;;;;;;;58.65;15.05;;;15.60;99.90;;;;;;4942480;29;20059;-84
2022/07/30 04:37:40;;;;;;;253.27;33.65;;;15.60;99.90;;;;;;4935285;28;20464;-84
2022/07/30 04:40:07;;;;;;;183.15;32.00;;;15.50;99.90;;;;;;4981794;28;20121;-84
2022/07/30 04:42:39;;;;;;;78.55;23.50;;;15.50;99.90;;;;;;4980616;28;20100;-85
2022/07/30 04:45:32;;;;;;;159.60;33.67;;;15.50;99.90;;;;;;4996524;28;20065;-84
2022/07/30 04:48:18;;;;;;;152.95;29.15;;;15.40;99.90;;;;;;4996318;28;20082;-84
2022/07/30 04:51:44;;;;;;;;;;;;;;;;;;;;;
2022/07/30 04:54:55;;;;;;;;;;;;;;;;;;;;;
2022/07/30 04:57:25;;;;;;;135.13;25.92;;;15.40;99.90;;;;;;4995317;28;20065;-84
2022/07/30 05:00:06;;;;;;;89.82;21.35;;;15.40;99.90;;;;;;4996606;28;20077;-81
2022/07/30 05:02:59;;;;;;;159.68;30.35;;;15.40;99.90;;;;;;4995757;28;20053;-83
2022/07/30 05:15:21;;;;;;;;;;;15.60;99.90;;;;;;4992511;23;20105;-82
2022/07/30 05:21:01;;;;;;;74.25;28.75;;;15.70;99.90;;;;;;4958069;28;20149;-84
2022/07/30 05:24:24;;;;;;;;;;;;;;;;;;;;;
2022/07/30 05:53:50;;;;;;;31.10;16.33;;;16.20;99.90;;;;;;3134060;26;19928;-83
2022/07/30 05:56:16;;;;;;;28.90;16.23;;;16.30;99.90;;;;;;4960061;28;20038;-87
2022/07/30 05:58:42;;;;;;;26.80;14.75;;;16.30;99.90;;;;;;4961276;28;20042;-84
2022/07/30 06:01:08;;;;;;;30.73;15.27;;;16.40;99.90;;;;;;4993032;28;20050;-86
2022/07/30 06:03:33;;;;;;;28.42;14.60;;;16.50;99.90;;;;;;4978294;28;20039;-85
2022/07/30 06:06:01;;;;;;;29.55;13.25;;;16.50;99.90;;;;;;4960790;28;20039;-88
2022/07/30 06:08:27;;;;;;;30.83;13.88;;;16.50;99.90;;;;;;4976816;28;20133;-87
2022/07/30 06:10:52;;;;;;;26.15;13.95;;;16.60;99.90;;;;;;4977749;28;20086;-85
2022/07/30 06:13:18;;;;;;;21.27;11.95;;;16.70;99.90;;;;;;4976679;28;20050;-85
2022/07/30 06:15:44;;;;;;;24.23;12.43;;;16.70;99.90;;;;;;4977209;28;20511;-83
2022/07/30 06:18:09;;;;;;;26.88;12.73;;;16.70;99.90;;;;;;4975579;28;20050;-83
2022/07/30 06:20:35;;;;;;;24.50;12.32;;;16.70;99.90;;;;;;4975138;28;20039;-85
2022/07/30 06:23:01;;;;;;;22.23;12.35;;;16.80;99.90;;;;;;4975004;28;20038;-85
2022/07/30 06:25:26;;;;;;;19.95;10.68;;;16.80;99.90;;;;;;4959253;28;20080;-87
2022/07/30 06:27:52;;;;;;;21.38;10.93;;;16.80;99.90;;;;;;4976098;28;20479;-84
2022/07/30 06:30:18;;;;;;;19.92;10.80;;;16.90;99.90;;;;;;4976574;28;20047;-83
2022/07/30 06:32:44;;;;;;;20.88;10.70;;;16.90;99.90;;;;;;4975426;28;20042;-86
2022/07/30 06:35:10;;;;;;;23.80;11.30;;;17.00;99.90;;;;;;4958894;28;20093;-83
2022/07/30 06:37:36;;;;;;;19.30;11.40;;;17.00;99.90;;;;;;4975386;28;20125;-83
2022/07/30 06:40:01;;;;;;;23.23;11.93;;;17.00;99.90;;;;;;4975313;28;20046;-84
2022/07/30 06:42:28;;;;;;;24.50;11.43;;;17.10;99.90;;;;;;4975025;28;20086;-83
2022/07/30 06:44:53;;;;;;;17.15;10.52;;;17.20;99.90;;;;;;4975625;28;20150;-85
2022/07/30 06:47:27;;;;;;;19.95;11.07;;;17.30;99.90;;;;;;4975180;28;20154;-85
2022/07/30 06:49:53;;;;;;;18.05;9.93;;;17.40;99.90;;;;;;4975221;28;20054;-85
2022/07/30 06:52:19;;;;;;;14.68;10.20;;;17.50;99.90;;;;;;4959057;28;20046;-87
2022/07/30 06:54:46;;;;;;;15.98;8.70;;;17.50;99.90;;;;;;4958552;28;20051;-84
2022/07/30 06:57:12;;;;;;;18.17;9.30;;;17.70;99.90;;;;;;4958486;28;20047;-85
2022/07/30 06:59:38;;;;;;;20.15;9.80;;;17.70;99.90;;;;;;4958604;28;20101;-84
2022/07/30 07:02:22;;;;;;;19.02;9.02;;;17.70;99.90;;;;;;4958884;28;20043;-85
2022/07/30 07:04:58;;;;;;;16.98;8.18;;;17.80;99.90;;;;;;4958685;28;20550;-84
2022/07/30 07:07:24;;;;;;;15.68;7.75;;;17.90;99.90;;;;;;4974343;28;20057;-83
2022/07/30 07:09:50;;;;;;;13.65;7.45;;;18.00;99.90;;;;;;4975871;28;20038;-83
2022/07/30 07:12:15;;;;;;;16.33;8.23;;;18.00;99.90;;;;;;4974326;28;20042;-81
2022/07/30 07:14:41;;;;;;;15.85;6.95;;;18.10;99.90;;;;;;4976414;28;20125;-85
2022/07/30 07:17:07;;;;;;;15.30;6.95;;;18.10;99.90;;;;;;4977812;28;20061;-90
2022/07/30 07:19:33;;;;;;;13.57;7.10;;;18.20;99.90;;;;;;4960093;28;20055;-88
2022/07/30 07:21:59;;;;;;;13.43;6.70;;;18.20;99.90;;;;;;4961362;28;20367;-84
2022/07/30 07:24:25;;;;;;;14.73;6.68;;;18.30;99.90;;;;;;4976515;28;20093;-86
2022/07/30 07:26:53;;;;;;;12.60;6.70;;;18.30;99.90;;;;;;4962442;28;20057;-89
2022/07/30 07:29:19;;;;;;;9.32;5.80;;;18.30;99.90;;;;;;4977615;28;20035;-88
2022/07/30 07:31:45;;;;;;;9.60;5.70;;;18.40;99.90;;;;;;4976238;28;20039;-87
2022/07/30 07:34:11;;;;;;;10.07;5.45;;;18.50;99.90;;;;;;4974882;28;20043;-85
2022/07/30 07:36:36;;;;;;;12.25;5.70;;;18.50;99.90;;;;;;4958584;28;20039;-85
2022/07/30 07:39:08;;;;;;;16.13;6.75;;;18.40;99.90;;;;;;4976093;28;20046;-85
2022/07/30 07:41:37;;;;;;;16.70;6.18;;;18.30;99.90;;;;;;4975207;28;20043;-86
2022/07/30 07:44:04;;;;;;;13.20;5.88;;;18.30;99.90;;;;;;4958694;28;20069;-88
2022/07/30 07:46:31;;;;;;;10.90;5.30;;;18.40;99.90;;;;;;4958929;28;20035;-88
2022/07/30 07:48:57;;;;;;;9.18;4.72;;;18.50;99.90;;;;;;4974785;28;20125;-86
2022/07/30 07:51:23;;;;;;;11.63;5.18;;;18.60;99.90;;;;;;4959016;28;20051;-88
2022/07/30 07:54:00;;;;;;;13.15;5.47;;;18.70;99.90;;;;;;4959685;28;20081;-89
2022/07/30 07:56:26;;;;;;;11.98;5.30;;;18.80;99.90;;;;;;4958886;28;20042;-86
2022/07/30 07:59:05;;;;;;;;;;;;;;;;;;;;;
2022/07/30 08:01:58;;;;;;;12.63;5.60;;;18.70;99.90;;;;;;4976073;28;20057;-84
2022/07/30 08:04:24;;;;;;;11.57;4.72;;;18.70;99.90;;;;;;4974243;28;20042;-86
2022/07/30 08:07:05;;;;;;;10.15;5.13;;;18.80;99.90;;;;;;4974515;28;20121;-86
2022/07/30 08:14:01;;;;;;;13.50;4.60;;;19.00;99.90;;;;;;4939799;28;20130;-86
2022/07/30 08:16:35;;;;;;;10.70;3.90;;;19.00;99.90;;;;;;4959115;28;20067;-87
2022/07/30 08:19:10;;;;;;;17.45;4.53;;;19.10;99.90;;;;;;4959404;28;20117;-86
2022/07/30 08:21:36;;;;;;;7.35;3.63;;;19.20;99.90;;;;;;4959124;28;20126;-88
2022/07/30 08:24:04;;;;;;;11.20;4.57;;;19.20;99.90;;;;;;4958976;28;20534;-84
2022/07/30 08:26:36;;;;;;;10.75;4.13;;;19.30;99.90;;;;;;4958478;28;20061;-75
2022/07/30 08:29:08;;;;;;;9.63;4.15;;;19.30;99.90;;;;;;4974912;28;20387;-86
2022/07/30 08:31:56;;;;;;;10.77;4.55;;;19.50;99.90;;;;;;4973729;28;20057;-84
2022/07/30 08:34:23;;;;;;;14.35;4.70;;;19.50;99.90;;;;;;4957090;28;20058;-83
2022/07/30 08:37:01;;;;;;;10.55;4.53;;;19.50;99.90;;;;;;4957642;28;20055;-84
2022/07/30 08:39:27;;;;;;;11.77;4.60;;;19.40;99.90;;;;;;4973463;28;20082;-81
2022/07/30 08:41:53;;;;;;;8.38;4.60;;;19.50;99.90;;;;;;4973531;28;20078;-84
2022/07/30 08:44:20;;;;;;;11.88;4.93;;;19.50;99.90;;;;;;4974855;28;20047;-83
2022/07/30 08:46:47;;;;;;;7.82;4.40;;;19.50;99.90;;;;;;4973450;28;20134;-84
2022/07/30 08:49:14;;;;;;;18.30;5.72;;;19.60;99.90;;;;;;4974334;28;20049;-85
2022/07/30 08:51:40;;;;;;;9.35;4.65;;;19.70;99.90;;;;;;4973564;28;20043;-84
2022/07/30 08:54:06;;;;;;;10.80;5.15;;;19.80;99.90;;;;;;4957313;28;20068;-84
2022/07/30 08:56:33;;;;;;;8.05;4.53;;;19.90;99.90;;;;;;4973327;28;20506;-83
2022/07/30 08:59:03;;;;;;;13.55;4.47;;;19.90;99.90;;;;;;4958764;28;20053;-87
2022/07/30 09:01:29;;;;;;;10.07;4.35;;;20.00;99.90;;;;;;4977389;28;20074;-88
2022/07/30 09:03:55;;;;;;;9.95;4.75;;;20.00;99.90;;;;;;4962832;28;20081;-87
2022/07/30 09:06:20;;;;;;;10.55;4.20;;;20.10;99.90;;;;;;4979324;28;20038;-85
2022/07/30 09:08:46;;;;;;;11.55;4.00;;;20.20;99.90;;;;;;4978317;28;20111;-86
2022/07/30 09:11:12;;;;;;;11.57;4.47;;;20.20;99.90;;;;;;4977873;28;20558;-84
2022/07/30 09:13:43;;;;;;;8.05;4.35;;;20.30;99.90;;;;;;4961909;28;20102;-84
2022/07/30 09:16:22;;;;;;;13.02;4.78;;;20.20;99.90;;;;;;4979813;28;20041;-88
2022/07/30 09:18:48;;;;;;;12.63;4.40;;;20.20;99.90;;;;;;4962075;28;20043;-82
2022/07/30 09:21:22;;;;;;;6.53;3.85;;;20.30;99.90;;;;;;4979065;28;20045;-84
2022/07/30 09:23:55;;;;;;;11.45;4.40;;;20.50;99.90;;;;;;4962968;28;20391;-88
2022/07/30 09:26:21;;;;;;;8.85;3.95;;;20.60;99.90;;;;;;4961432;28;20042;-86
2022/07/30 09:28:46;;;;;;;8.50;4.20;;;20.80;99.90;;;;;;4967972;28;20179;-85
2022/07/30 09:31:12;;;;;;;6.55;4.15;;;20.90;99.90;;;;;;4979146;28;20133;-85
2022/07/30 09:33:45;;;;;;;8.10;4.18;;;21.00;99.90;;;;;;4962399;28;20050;-87
2022/07/30 09:36:17;;;;;;;10.77;3.75;;;21.00;99.90;;;;;;4965043;28;20070;-85
2022/07/30 09:38:52;;;;;;;14.57;4.05;;;21.10;99.90;;;;;;4979251;28;20135;-84
2022/07/30 09:41:31;;;;;;;6.70;3.38;;;21.20;99.90;;;;;;4979113;28;20049;-85
2022/07/30 09:43:57;;;;;;;7.40;3.10;;;21.10;99.90;;;;;;4965413;28;20042;-84
2022/07/30 09:46:45;;;;;;;8.23;3.78;;;21.00;99.90;;;;;;4980409;28;20088;-86
2022/07/30 09:49:20;;;;;;;7.10;3.05;;;20.90;99.90;;;;;;4963221;28;20106;-87
2022/07/30 09:51:46;;;;;;;7.78;2.70;;;21.10;99.90;;;;;;4962507;28;20042;-85
2022/07/30 09:54:12;;;;;;;6.70;3.08;;;21.10;99.90;;;;;;4961611;28;20049;-83
2022/07/30 09:56:38;;;;;;;10.80;3.53;;;21.40;99.90;;;;;;4978376;28;20031;-84
2022/07/30 09:59:05;;;;;;;7.82;3.17;;;21.50;99.90;;;;;;4977303;28;20054;-86
2022/07/30 10:01:51;;;;;;;7.47;3.00;;;21.60;99.90;;;;;;4976281;28;20043;-84
2022/07/30 10:04:27;;;;;;;8.35;3.25;;;21.50;99.90;;;;;;4977630;28;20035;-85
2022/07/30 10:06:53;;;;;;;7.75;2.80;;;21.50;99.90;;;;;;4961425;28;20081;-85
2022/07/30 10:09:28;;;;;;;9.45;2.88;;;21.60;99.90;;;;;;4977800;28;20387;-83
2022/07/30 10:11:57;;;;;;;5.32;2.55;;;21.90;99.90;;;;;;4978161;28;20093;-82
2022/07/30 10:14:27;;;;;;;7.40;2.70;;;22.10;99.90;;;;;;4958898;28;20047;-86
2022/07/30 10:16:53;;;;;;;5.35;2.40;;;22.00;99.90;;;;;;4956969;29;20186;-87
2022/07/30 10:19:19;;;;;;;11.52;3.15;;;21.70;99.90;;;;;;4941043;29;20079;-85
2022/07/30 10:21:45;;;;;;;7.97;2.92;;;21.70;99.90;;;;;;4941387;28;20058;-87
2022/07/30 10:24:15;;;;;;;8.25;2.97;;;21.80;99.90;;;;;;4958353;28;20067;-86
2022/07/30 10:26:41;;;;;;;5.70;2.40;;;21.90;99.90;;;;;;4957147;29;20521;-84
2022/07/30 10:29:07;;;;;;;7.32;2.88;;;22.00;99.90;;;;;;4940846;29;20054;-85
2022/07/30 10:31:33;;;;;;;7.95;2.47;;;21.90;99.90;;;;;;4957298;29;20061;-86
2022/07/30 10:33:59;;;;;;;7.72;2.83;;;22.00;99.90;;;;;;4941559;29;20129;-87
2022/07/30 10:36:26;;;;;;;5.90;2.70;;;22.00;99.90;;;;;;4941459;29;20478;-88
2022/07/30 10:38:53;;;;;;;9.70;3.17;;;22.20;99.90;;;;;;4957168;28;20491;-85
2022/07/30 10:41:44;;;;;;;10.73;3.08;;;22.40;99.90;;;;;;4957779;29;20067;-82
2022/07/30 10:44:48;;;;;;;8.63;2.60;;;22.40;99.90;;;;;;4972647;29;20078;-84
2022/07/30 10:47:17;;;;;;;7.78;2.28;;;22.30;99.90;;;;;;4970412;28;20058;-81
2022/07/30 10:50:06;;;;;;;6.28;2.40;;;22.50;99.90;;;;;;4960064;29;20043;-79
2022/07/30 10:52:51;;;;;;;7.20;2.40;;;22.60;99.90;;;;;;4954871;29;20054;-77
2022/07/30 10:55:28;;;;;;;6.43;2.15;;;22.60;99.90;;;;;;4989339;28;20039;-80
2022/07/30 10:58:08;;;;;;;8.20;2.65;;;22.40;99.90;;;;;;4989607;28;20057;-84
2022/07/30 11:00:50;;;;;;;4.38;2.15;;;22.40;99.90;;;;;;4980398;28;20047;-86
2022/07/30 11:03:22;;;;;;;6.93;2.75;;;22.40;99.90;;;;;;4979072;28;20518;-87
2022/07/30 11:05:50;;;;;;;4.93;2.47;;;22.50;99.90;;;;;;4961427;28;20051;-84
2022/07/30 11:08:28;;;;;;;6.65;2.60;;;22.60;99.90;;;;;;4978150;28;20047;-83
2022/07/30 11:10:54;;;;;;;6.18;2.10;;;22.70;99.90;;;;;;4960289;28;20498;-82
2022/07/30 11:13:50;;;;;;;6.50;2.00;;;22.80;99.90;;;;;;4976892;28;20039;-86
2022/07/30 11:16:18;;;;;;;4.88;2.42;;;22.80;99.90;;;;;;4960068;28;20043;-83
2022/07/30 11:19:05;;;;;;;7.18;2.30;;;22.90;99.90;;;;;;4975613;28;20081;-85
2022/07/30 11:21:32;;;;;;;4.35;2.30;;;22.90;99.90;;;;;;4975293;28;20053;-86
2022/07/30 11:23:59;;;;;;;6.82;2.35;;;22.70;99.90;;;;;;4977059;28;20031;-85
2022/07/30 11:26:45;;;;;;;4.22;1.80;;;22.70;99.90;;;;;;4976548;28;20043;-87
2022/07/30 11:29:33;;;;;;;5.22;2.30;;;22.80;99.90;;;;;;4975833;28;20081;-88
2022/07/30 11:32:25;;;;;;;5.53;2.03;;;22.80;99.90;;;;;;4976901;28;20360;-88
2022/07/30 11:35:10;;;;;;;4.85;1.80;;;22.80;99.90;;;;;;4978000;28;20046;-87
2022/07/30 11:37:58;;;;;;;3.72;1.60;;;22.80;99.90;;;;;;4960931;28;20443;-81
2022/07/30 11:40:29;;;;;;;8.18;2.25;;;22.80;99.90;;;;;;4975019;28;20043;-84
2022/07/30 11:43:29;;;;;;;5.05;2.10;;;22.80;99.90;;;;;;4959418;28;20043;-85
2022/07/30 11:46:24;;;;;;;4.70;1.70;;;23.00;99.90;;;;;;4958628;28;20087;-85
2022/07/30 11:48:57;;;;;;;5.13;2.00;;;23.10;99.90;;;;;;4971398;28;20130;-88
2022/07/30 11:51:42;;;;;;;5.97;1.70;;;23.30;99.90;;;;;;4975261;28;20065;-88
2022/07/30 11:54:25;;;;;;;3.38;1.85;;;23.30;99.90;;;;;;4976251;28;20058;-85
2022/07/30 11:56:53;;;;;;;5.50;2.17;;;23.20;99.90;;;;;;4978255;28;20562;-88
2022/07/30 11:59:19;;;;;;;4.95;2.00;;;23.30;99.90;;;;;;4975088;28;20050;-78
2022/07/30 12:01:50;;;;;;;9.10;2.17;;;23.40;99.90;;;;;;4974653;28;20046;-90
2022/07/30 12:04:16;;;;;;;6.25;1.80;;;23.30;99.90;;;;;;4975255;28;20133;-89
2022/07/30 12:06:47;;;;;;;4.20;1.63;;;23.40;99.90;;;;;;4961592;28;20047;-90
2022/07/30 12:09:21;;;;;;;5.80;1.80;;;23.50;99.90;;;;;;4961268;28;20675;-89
2022/07/30 12:11:47;;;;;;;3.03;1.55;;;23.50;99.90;;;;;;4976613;28;20085;-91
2022/07/30 12:14:12;;;;;;;5.13;1.88;;;23.50;98.90;;;;;;4960991;28;20072;-91
2022/07/30 12:16:41;;;;;;;5.90;1.80;;;23.40;98.80;;;;;;4960902;28;20031;-90
2022/07/30 12:19:06;;;;;;;3.03;1.42;;;23.50;99.40;;;;;;4977695;28;20486;-90
2022/07/30 12:21:33;;;;;;;5.43;1.90;;;23.40;99.90;;;;;;4977452;28;20118;-86
2022/07/30 12:24:01;;;;;;;5.78;1.70;;;23.30;99.90;;;;;;4977303;28;20495;-90
2022/07/30 12:26:30;;;;;;;3.92;1.80;;;23.00;99.70;;;;;;4977963;28;20039;-91
2022/07/30 12:28:59;;;;;;;4.40;2.20;;;23.10;99.10;;;;;;4961882;28;20045;-88
2022/07/30 12:31:26;;;;;;;4.68;1.70;;;23.00;99.90;;;;;;4977817;28;20372;-89
2022/07/30 12:33:52;;;;;;;4.28;1.90;;;23.30;99.90;;;;;;4964091;28;20159;-90
2022/07/30 12:36:31;;;;;;;6.10;1.83;;;23.40;99.90;;;;;;4981258;28;20072;-89
2022/07/30 12:38:58;;;;;;;3.40;1.35;;;23.30;99.10;;;;;;4964598;28;20046;-89
2022/07/30 12:41:44;;;;;;;5.80;1.70;;;23.30;98.90;;;;;;4980326;28;20043;-89
2022/07/30 12:44:09;;;;;;;7.20;2.00;;;23.30;99.80;;;;;;4964321;28;20125;-90
2022/07/30 12:46:40;;;;;;;3.33;1.50;;;23.20;98.80;;;;;;4967492;28;20105;-90
2022/07/30 12:49:07;;;;;;;5.97;1.50;;;23.30;98.80;;;;;;4973916;28;20046;-88
2022/07/30 12:51:48;;;;;;;3.47;1.50;;;23.50;97.80;;;;;;4964541;28;20039;-91
2022/07/30 12:54:16;;;;;;;4.80;1.60;;;23.30;98.10;;;;;;4982032;28;20058;-90
2022/07/30 12:56:57;;;;;;;3.15;1.70;;;23.10;98.40;;;;;;4980220;28;20502;-88
2022/07/30 12:59:23;;;;;;;4.13;1.50;;;23.20;99.20;;;;;;4964594;28;20053;-88
2022/07/30 13:01:51;;;;;;;5.82;1.88;;;23.20;99.90;;;;;;4979571;28;20074;-90
2022/07/30 13:04:16;;;;;;;5.13;1.80;;;23.20;99.40;;;;;;4978934;28;20550;-88
2022/07/30 13:06:42;;;;;;;3.10;1.60;;;22.90;98.90;;;;;;4980150;28;20159;-90
2022/07/30 13:09:19;;;;;;;7.20;1.50;;;23.00;99.30;;;;;;4964205;28;20049;-90
2022/07/30 13:11:45;;;;;;;3.78;1.35;;;23.20;97.80;;;;;;4964402;28;20051;-91
2022/07/30 13:14:14;;;;;;;6.22;1.73;;;23.30;96.90;;;;;;4980473;28;20042;-89
2022/07/30 13:16:40;;;;;;;3.72;1.23;;;23.00;96.40;;;;;;4980387;28;20055;-89
2022/07/30 13:19:06;;;;;;;4.53;1.33;;;22.80;94.50;;;;;;4963513;28;20042;-89
2022/07/30 13:21:33;;;;;;;3.92;1.20;;;22.70;95.60;;;;;;4963279;28;20065;-86
2022/07/30 13:23:59;;;;;;;3.10;1.10;;;22.70;93.90;;;;;;4979516;28;20524;-91
2022/07/30 13:26:28;;;;;;;5.40;1.70;;;22.80;93.90;;;;;;4963923;28;20101;-88
2022/07/30 13:28:54;;;;;;;3.03;1.25;;;23.00;94.40;;;;;;4980502;28;20498;-90
2022/07/30 13:31:21;;;;;;;2.75;1.38;;;23.00;93.50;;;;;;4962064;28;20131;-90
2022/07/30 13:33:47;;;;;;;2.38;1.00;;;23.20;94.00;;;;;;4964028;28;20085;-89
2022/07/30 13:36:12;;;;;;;3.67;1.00;;;23.20;91.60;;;;;;4979483;28;20572;-90
2022/07/30 13:38:38;;;;;;;3.33;1.13;;;23.00;92.30;;;;;;4964167;28;20054;-88
2022/07/30 13:41:04;;;;;;;2.15;1.13;;;23.10;93.20;;;;;;4963539;28;20095;-91
2022/07/30 13:43:30;;;;;;;3.90;1.33;;;23.00;93.40;;;;;;4980242;28;20043;-91
2022/07/30 13:45:56;;;;;;;2.63;1.20;;;23.00;94.00;;;;;;4978487;28;20073;-89
2022/07/30 13:48:22;;;;;;;2.40;1.10;;;23.10;94.90;;;;;;4979255;28;20039;-90
2022/07/30 13:50:48;;;;;;;3.78;1.20;;;23.00;95.40;;;;;;4964006;28;20041;-89
2022/07/30 13:53:15;;;;;;;2.28;1.15;;;23.10;95.50;;;;;;4962051;28;20035;-89
2022/07/30 13:55:41;;;;;;;3.38;1.38;;;23.20;95.50;;;;;;4979269;28;20102;-88
2022/07/30 13:58:08;;;;;;;3.00;1.05;;;23.20;94.80;;;;;;4963045;28;20103;-89
2022/07/30 14:00:36;;;;;;;2.47;0.93;;;23.30;92.90;;;;;;4962164;28;20050;-89
2022/07/30 14:03:04;;;;;;;1.98;1.17;;;23.30;90.00;;;;;;4963634;28;20095;-90
2022/07/30 14:05:31;;;;;;;3.58;1.00;;;23.40;87.80;;;;;;4979594;28;20106;-88
2022/07/30 14:08:02;;;;;;;3.35;0.93;;;23.20;85.60;;;;;;4962368;28;20045;-91
2022/07/30 14:10:28;;;;;;;3.22;0.95;;;22.90;87.70;;;;;;4961817;28;20475;-83
2022/07/30 14:12:55;;;;;;;3.17;0.95;;;23.00;88.90;;;;;;4960971;28;20065;-89
2022/07/30 14:15:25;;;;;;;2.50;1.00;;;22.90;89.70;;;;;;4978777;28;20506;-90
2022/07/30 14:17:51;;;;;;;2.40;0.90;;;22.80;91.10;;;;;;4962210;28;20054;-89
2022/07/30 14:20:18;;;;;;;3.33;0.95;;;22.80;90.40;;;;;;4977305;28;20043;-88
2022/07/30 14:22:44;;;;;;;3.58;1.30;;;22.70;90.00;;;;;;4978393;28;20038;-88
2022/07/30 14:25:10;;;;;;;2.85;1.10;;;22.80;90.20;;;;;;4978353;28;20351;-89
2022/07/30 14:27:36;;;;;;;4.00;1.15;;;22.80;90.60;;;;;;4962775;28;20046;-87
2022/07/30 14:30:04;;;;;;;3.45;1.10;;;22.70;90.00;;;;;;4978764;28;20046;-89
2022/07/30 14:32:29;;;;;;;3.70;0.90;;;22.70;90.00;;;;;;4961882;28;20113;-89
2022/07/30 14:34:55;;;;;;;3.45;1.40;;;22.60;89.90;;;;;;4979282;28;20039;-87
2022/07/30 14:37:21;;;;;;;3.97;1.40;;;22.70;90.30;;;;;;4978990;28;20123;-89
2022/07/30 14:39:46;;;;;;;3.33;1.10;;;22.80;91.80;;;;;;4962462;28;20038;-90
2022/07/30 14:42:12;;;;;;;4.72;1.10;;;22.80;91.40;;;;;;4961497;28;20046;-88
2022/07/30 14:44:38;;;;;;;3.47;1.63;;;22.90;92.40;;;;;;4962082;28;20046;-89
2022/07/30 14:47:03;;;;;;;3.53;1.17;;;22.90;92.30;;;;;;4977486;28;20077;-89
2022/07/30 14:49:29;;;;;;;3.22;1.30;;;22.90;92.60;;;;;;4977367;28;20035;-89
2022/07/30 14:51:55;;;;;;;7.60;1.40;;;22.80;93.20;;;;;;4978549;28;20047;-89
2022/07/30 14:54:21;;;;;;;2.88;1.30;;;22.70;94.20;;;;;;4962356;28;20034;-89
2022/07/30 14:56:47;;;;;;;1.83;1.10;;;22.70;94.60;;;;;;4977957;28;20069;-90
2022/07/30 14:59:13;;;;;;;3.72;1.30;;;22.70;95.10;;;;;;4976366;28;20510;-86
2022/07/30 15:01:40;;;;;;;2.40;1.33;;;22.70;95.10;;;;;;4977221;28;20051;-90
2022/07/30 15:04:08;;;;;;;3.17;1.30;;;22.70;95.90;;;;;;4961600;28;20039;-89
2022/07/30 15:06:35;;;;;;;2.33;1.10;;;22.60;97.00;;;;;;4977255;28;20105;-90
2022/07/30 15:09:01;;;;;;;2.95;1.38;;;22.70;97.20;;;;;;4962245;28;20051;-89
2022/07/30 15:11:27;;;;;;;4.07;1.35;;;22.80;97.70;;;;;;4977901;28;20051;-90
2022/07/30 15:13:52;;;;;;;2.50;1.35;;;22.80;97.50;;;;;;4978107;28;20053;-89
2022/07/30 15:16:18;;;;;;;3.65;1.60;;;22.80;97.90;;;;;;4961530;28;20043;-88
2022/07/30 15:18:44;;;;;;;4.22;1.50;;;22.60;98.80;;;;;;4977179;28;20047;-87
2022/07/30 15:21:11;;;;;;;3.55;1.50;;;22.60;99.60;;;;;;4977069;28;20050;-88
2022/07/30 15:23:37;;;;;;;2.05;1.40;;;22.50;99.90;;;;;;4976677;28;20043;-90
2022/07/30 15:26:03;;;;;;;3.95;1.40;;;22.50;99.90;;;;;;4961791;28;20082;-91
2022/07/30 15:28:29;;;;;;;4.90;1.30;;;22.40;99.50;;;;;;4977638;28;20042;-88
2022/07/30 15:30:55;;;;;;;4.45;1.33;;;22.40;99.90;;;;;;4979833;28;20043;-90
2022/07/30 15:33:21;;;;;;;7.70;1.75;;;22.40;99.90;;;;;;4977892;28;20037;-92
2022/07/30 15:35:46;;;;;;;5.13;1.60;;;22.40;99.90;;;;;;4978030;28;20089;-92
2022/07/30 15:38:12;;;;;;;3.58;1.60;;;22.40;99.90;;;;;;4961330;28;20019;-89
2022/07/30 15:40:38;;;;;;;3.00;1.52;;;22.40;99.90;;;;;;4961484;28;20042;-90
2022/07/30 15:43:04;;;;;;;2.53;1.50;;;22.40;99.90;;;;;;4961913;28;20398;-91
2022/07/30 15:45:30;;;;;;;4.05;1.80;;;22.50;99.90;;;;;;4960071;28;20034;-91
2022/07/30 15:47:55;;;;;;;4.68;1.50;;;22.60;99.90;;;;;;4960443;28;20039;-88
2022/07/30 15:50:22;;;;;;;6.43;1.77;;;22.60;99.90;;;;;;4961379;28;20045;-89
2022/07/30 15:52:48;;;;;;;3.83;1.38;;;22.50;99.90;;;;;;4961525;28;20094;-91
2022/07/30 15:55:14;;;;;;;4.63;1.80;;;22.50;99.90;;;;;;4977515;28;20384;-90
2022/07/30 15:57:40;;;;;;;3.83;1.42;;;22.50;99.90;;;;;;4961057;28;20141;-91
2022/07/30 16:00:07;;;;;;;4.85;1.83;;;22.50;99.90;;;;;;4961596;28;20034;-91
2022/07/30 16:02:33;;;;;;;6.43;1.75;;;22.40;99.90;;;;;;4977860;28;20070;-90
2022/07/30 16:04:59;;;;;;;4.72;1.55;;;22.50;99.90;;;;;;4961668;28;20110;-91
2022/07/30 16:07:25;;;;;;;3.72;1.85;;;22.40;99.90;;;;;;4959328;28;20097;-87
2022/07/30 16:09:50;;;;;;;4.25;1.58;;;22.40;99.90;;;;;;4979548;28;20042;-78
2022/07/30 16:12:16;;;;;;;3.80;1.35;;;22.40;99.90;;;;;;4978700;28;20484;-81
2022/07/30 16:14:42;;;;;;;3.80;1.70;;;22.70;99.90;;;;;;4980049;28;20099;-84
2022/07/30 16:17:10;;;;;;;3.67;1.80;;;22.90;99.90;;;;;;4978985;28;20463;-86
2022/07/30 16:19:36;;;;;;;2.90;1.40;;;23.10;99.90;;;;;;4978462;28;20102;-88
2022/07/30 16:22:02;;;;;;;3.63;1.40;;;23.20;99.90;;;;;;4979943;28;20046;-86
2022/07/30 16:24:38;;;;;;;6.57;1.73;;;23.30;99.90;;;;;;4979952;28;20391;-87
2022/07/30 16:27:03;;;;;;;3.83;1.60;;;23.40;99.90;;;;;;4977524;28;20089;-85
2022/07/30 16:29:29;;;;;;;4.47;1.45;;;23.40;99.90;;;;;;4946098;29;20074;-89
2022/07/30 16:31:55;;;;;;;3.13;1.73;;;23.30;99.90;;;;;;4961359;28;20483;-86
2022/07/30 16:34:22;;;;;;;4.97;1.52;;;23.30;99.90;;;;;;4976489;28;20039;-84
2022/07/30 16:36:47;;;;;;;6.32;1.48;;;23.10;99.90;;;;;;4978293;28;20078;-87
2022/07/30 16:39:13;;;;;;;3.53;1.30;;;23.10;99.90;;;;;;4962367;28;20038;-89
2022/07/30 16:41:39;;;;;;;4.25;1.52;;;22.80;99.90;;;;;;4994977;28;20047;-88
2022/07/30 16:44:05;;;;;;;5.85;1.88;;;22.70;99.90;;;;;;4963113;28;20101;-87
2022/07/30 16:46:30;;;;;;;5.63;1.40;;;22.70;99.90;;;;;;4979327;28;20051;-86
2022/07/30 16:48:56;;;;;;;3.45;1.40;;;22.60;99.90;;;;;;4978760;28;20042;-89
2022/07/30 16:51:21;;;;;;;4.93;1.60;;;22.40;99.90;;;;;;4979750;28;20085;-90
2022/07/30 16:53:47;;;;;;;3.75;1.83;;;22.40;99.90;;;;;;4963514;28;20356;-89
2022/07/30 16:56:37;;;;;;;3.50;1.85;;;22.40;99.90;;;;;;4980867;28;20050;-88
2022/07/30 16:59:05;;;;;;;3.92;1.50;;;22.40;99.90;;;;;;4957997;28;20043;-89
2022/07/30 17:01:31;;;;;;;3.80;1.67;;;22.40;99.90;;;;;;4963348;28;20056;-90
2022/07/30 17:03:58;;;;;;;4.97;1.60;;;22.30;99.90;;;;;;4962720;28;20047;-87
2022/07/30 17:06:24;;;;;;;6.35;1.27;;;22.20;99.90;;;;;;4978903;28;20053;-91
2022/07/30 17:08:50;;;;;;;6.93;1.80;;;22.10;99.90;;;;;;4979854;28;20058;-88
2022/07/30 17:11:16;;;;;;;3.40;1.60;;;22.10;99.90;;;;;;4964222;28;20433;-88
2022/07/30 17:13:43;;;;;;;5.55;1.60;;;22.00;99.90;;;;;;4960626;28;20418;-88
2022/07/30 17:16:09;;;;;;;4.68;1.50;;;22.00;99.90;;;;;;4980905;28;20141;-89
2022/07/30 17:18:34;;;;;;;5.43;1.50;;;21.80;99.90;;;;;;4979422;28;20039;-90
2022/07/30 17:21:00;;;;;;;4.18;1.52;;;21.70;99.90;;;;;;4978939;28;20022;-89
2022/07/30 17:23:26;;;;;;;7.18;2.08;;;21.70;99.90;;;;;;4980831;28;20093;-91
2022/07/30 17:25:52;;;;;;;8.20;1.63;;;21.60;99.90;;;;;;4963476;28;20090;-87
2022/07/30 17:28:21;;;;;;;3.38;1.45;;;21.60;99.90;;;;;;4962605;28;20039;-90
2022/07/30 17:30:47;;;;;;;4.93;1.65;;;21.60;99.90;;;;;;4980236;28;20043;-89
2022/07/30 17:33:15;;;;;;;7.53;1.73;;;21.50;99.90;;;;;;4979931;28;20554;-89
2022/07/30 17:35:41;;;;;;;6.40;2.40;;;21.60;99.90;;;;;;4980873;28;20042;-91
2022/07/30 17:38:07;;;;;;;4.65;1.50;;;21.50;99.90;;;;;;4963801;28;20126;-88
2022/07/30 17:40:32;;;;;;;5.30;1.55;;;21.50;99.90;;;;;;4980105;28;20054;-90
2022/07/30 17:43:02;;;;;;;6.28;1.80;;;21.50;99.90;;;;;;4963658;28;20067;-89
2022/07/30 17:45:29;;;;;;;4.55;1.50;;;21.50;99.90;;;;;;4963168;28;20078;-88
2022/07/30 17:47:54;;;;;;;5.70;1.83;;;21.60;99.90;;;;;;4963141;28;20043;-87
2022/07/30 17:50:20;;;;;;;5.47;1.83;;;21.60;99.90;;;;;;4980123;28;20043;-85
2022/07/30 17:52:46;;;;;;;6.07;1.80;;;21.60;99.90;;;;;;4962731;28;20046;-90
2022/07/30 17:55:12;;;;;;;6.00;1.70;;;21.60;99.90;;;;;;4979164;28;20047;-90
2022/07/30 17:57:39;;;;;;;3.20;1.50;;;21.40;99.90;;;;;;4963776;28;20049;-89
2022/07/30 18:00:07;;;;;;;8.05;1.98;;;21.40;99.90;;;;;;4979728;28;20495;-90
2022/07/30 18:02:33;;;;;;;4.47;2.03;;;21.50;99.90;;;;;;4963140;28;20097;-90
2022/07/30 18:04:59;;;;;;;4.35;1.90;;;21.40;99.90;;;;;;4966055;28;20046;-90
2022/07/30 18:07:25;;;;;;;6.25;1.98;;;21.40;99.90;;;;;;4964620;28;20047;-92
2022/07/30 18:09:51;;;;;;;9.65;2.22;;;21.40;99.90;;;;;;4980486;28;20061;-91
2022/07/30 18:12:27;;;;;;;4.43;1.92;;;21.40;99.90;;;;;;4963878;28;20479;-89